Time;durP1;ratioP1;P1;durP2;ratioP2;P2;SDS_P1;SDS_P2;PMS_P1;PMS_P2;Temp;Humidity;BMP_temperature;BMP_pressure;BME280_temperature;BME280_humidity;BME280_pressure;Samples;Min_cycle;Max_cycle;Signal;HPM_P1;HPM_P2
2023/03/05 00:00:16;;;;;;;9.88;5.07;;;;;;;-5.28;73.78;95485.13;6321472;28;20032;-66
2023/03/05 00:03:21;;;;;;;7.22;5.20;;;;;;;-5.34;73.68;95477.59;6320667;28;20059;-66
2023/03/05 00:06:29;;;;;;;8.98;5.53;;;;;;;-5.38;73.69;95469.13;6321427;28;20051;-67
2023/03/05 00:09:34;;;;;;;8.55;4.18;;;;;;;-5.48;73.78;95476.22;6321383;28;20131;-67
2023/03/05 00:12:38;;;;;;;11.00;5.60;;;;;;;-5.49;74.07;95474.56;6321068;28;20048;-66
2023/03/05 00:15:42;;;;;;;;;;;;;;;-5.39;74.65;95469.19;6321572;28;20562;-67
2023/03/05 00:18:47;;;;;;;7.07;4.28;;;;;;;-5.33;73.93;95464.72;6319464;28;20026;-66
2023/03/05 00:21:52;;;;;;;8.65;4.85;;;;;;;-5.59;73.76;95470.50;6320786;28;20125;-66
2023/03/05 00:24:56;;;;;;;6.10;2.67;;;;;;;-5.40;73.53;95480.34;6320916;28;20044;-67
2023/03/05 00:28:00;;;;;;;;;;;;;;;-5.42;74.15;95481.19;6321204;28;20093;-67
2023/03/05 00:31:05;;;;;;;6.60;4.32;;;;;;;-5.55;74.01;95468.72;6321050;28;19923;-68
2023/03/05 00:34:13;;;;;;;5.97;4.43;;;;;;;-5.67;74.68;95464.72;6320675;28;20535;-67
2023/03/05 00:37:18;;;;;;;8.10;5.25;;;;;;;-5.65;74.65;95468.09;6320705;28;20039;-67
2023/03/05 00:40:23;;;;;;;6.00;3.60;;;;;;;-5.80;74.86;95453.09;6320533;28;20113;-66
2023/03/05 00:43:28;;;;;;;11.00;5.72;;;;;;;-5.76;74.90;95449.59;6320150;28;20599;-65
2023/03/05 00:46:32;;;;;;;5.25;4.15;;;;;;;-5.85;75.51;95455.78;6320308;28;20109;-67
2023/03/05 00:49:37;;;;;;;8.38;5.68;;;;;;;-5.84;75.34;95454.06;6318846;28;20539;-65
2023/03/05 00:52:43;;;;;;;8.57;5.20;;;;;;;-5.72;75.26;95456.31;6319945;28;20467;-67
2023/03/05 00:55:47;;;;;;;6.32;3.38;;;;;;;-5.62;74.87;95450.09;6320018;28;20109;-66
2023/03/05 00:58:52;;;;;;;6.95;4.97;;;;;;;-5.72;75.60;95457.19;6320168;28;20040;-67
2023/03/05 01:01:56;;;;;;;5.78;3.58;;;;;;;-5.80;76.07;95450.53;6320096;28;20127;-67
2023/03/05 01:05:01;;;;;;;3.35;3.05;;;;;;;-5.70;75.85;95447.72;6320566;28;20497;-66
2023/03/05 01:08:10;;;;;;;6.30;4.05;;;;;;;-5.81;75.44;95441.16;6320103;28;20054;-66
2023/03/05 01:11:15;;;;;;;6.47;3.97;;;;;;;-5.91;75.79;95441.38;6320000;28;20501;-66
2023/03/05 01:14:21;;;;;;;10.00;5.68;;;;;;;-5.84;75.49;95436.97;6319731;28;20154;-67
2023/03/05 01:17:25;;;;;;;4.88;4.13;;;;;;;-5.88;75.56;95440.47;6319643;28;20067;-67
2023/03/05 01:20:28;;;;;;;;;;;;;;;-5.89;75.78;95444.78;6320153;28;20070;-67
2023/03/05 01:23:36;;;;;;;7.32;4.93;;;;;;;-5.91;76.21;95443.97;6319737;28;20452;-67
2023/03/05 01:26:40;;;;;;;4.75;3.17;;;;;;;-5.96;75.79;95448.38;6319493;28;20039;-68
2023/03/05 01:29:45;;;;;;;6.88;4.85;;;;;;;-5.95;76.53;95449.22;6319800;28;20105;-67
2023/03/05 01:32:50;;;;;;;4.53;2.90;;;;;;;-5.84;76.39;95441.25;6319246;28;20105;-67
2023/03/05 01:35:53;;;;;;;;;;;;;;;-5.61;76.13;95444.06;6319744;28;20509;-68
2023/03/05 01:38:58;;;;;;;7.85;5.20;;;;;;;-5.63;75.50;95448.41;6319457;28;20018;-67
2023/03/05 01:42:04;;;;;;;9.32;5.22;;;;;;;-5.77;75.48;95450.47;6319111;28;20116;-66
2023/03/05 01:45:12;;;;;;;5.38;4.35;;;;;;;-5.75;75.83;95446.13;6319180;28;20098;-67
2023/03/05 01:48:17;;;;;;;7.47;5.03;;;;;;;-5.66;75.11;95449.34;6319366;28;20074;-66
2023/03/05 01:51:28;;;;;;;4.72;3.90;;;;;;;-5.56;75.35;95452.50;6319097;28;20044;-67
2023/03/05 01:54:54;;;;;;;6.03;3.55;;;;;;;-5.39;74.75;95448.69;6319124;28;20193;-67
2023/03/05 01:58:12;;;;;;;10.13;4.75;;;;;;;-5.40;74.37;95452.97;6319230;28;20048;-67
2023/03/05 02:01:17;;;;;;;5.10;3.08;;;;;;;-5.56;74.59;95452.50;6319174;28;20044;-66
2023/03/05 02:04:30;;;;;;;4.80;3.30;;;;;;;-5.54;74.59;95450.75;6319267;28;20043;-67
2023/03/05 02:07:39;;;;;;;10.85;6.53;;;;;;;-5.75;75.45;95448.69;6319168;28;20044;-66
2023/03/05 02:10:48;;;;;;;4.38;2.67;;;;;;;-5.51;75.54;95455.78;6319048;28;20043;-67
2023/03/05 02:13:53;;;;;;;8.15;5.05;;;;;;;-5.68;75.66;95452.81;6318712;28;20051;-67
2023/03/05 02:16:58;;;;;;;7.60;4.25;;;;;;;-5.62;75.53;95452.66;6318845;28;20051;-66
2023/03/05 02:20:25;;;;;;;8.18;5.38;;;;;;;-5.70;75.43;95452.00;6318899;28;20460;-67
2023/03/05 02:23:37;;;;;;;6.57;4.47;;;;;;;-5.50;75.21;95461.75;6318879;28;20036;-67
2023/03/05 02:26:43;;;;;;;7.60;5.25;;;;;;;-5.61;74.87;95464.56;6319273;28;20043;-66
2023/03/05 02:29:50;;;;;;;3.70;2.55;;;;;;;-5.49;74.99;95458.31;6324042;28;20417;-66
2023/03/05 02:32:55;;;;;;;7.70;5.10;;;;;;;-5.48;74.08;95450.59;6323502;28;20039;-66
2023/03/05 02:36:00;;;;;;;9.32;5.43;;;;;;;-5.55;74.78;95450.78;6323620;28;20044;-66
2023/03/05 02:39:06;;;;;;;7.30;5.25;;;;;;;-5.67;74.99;95444.22;6323093;28;20047;-66
2023/03/05 02:42:11;;;;;;;9.27;5.47;;;;;;;-5.76;74.60;95452.16;6323294;28;20047;-65
2023/03/05 02:45:17;;;;;;;10.05;4.95;;;;;;;-5.71;74.67;95448.59;6322036;28;20047;-68
2023/03/05 02:48:22;;;;;;;6.05;3.72;;;;;;;-5.71;75.17;95455.44;6323149;28;20039;-67
2023/03/05 02:51:27;;;;;;;6.10;4.00;;;;;;;-5.68;75.03;95466.47;6321005;28;20044;-68
2023/03/05 02:54:32;;;;;;;10.23;5.50;;;;;;;-5.49;74.40;95469.44;6323153;28;20051;-65
2023/03/05 02:57:37;;;;;;;6.40;4.47;;;;;;;-5.46;74.36;95474.47;6323297;28;20044;-67
2023/03/05 03:00:45;;;;;;;8.80;5.60;;;;;;;-5.56;75.35;95461.91;6322777;28;20139;-67
2023/03/05 03:03:50;;;;;;;7.47;4.85;;;;;;;-5.57;74.65;95458.53;6322733;28;20040;-66
2023/03/05 03:06:55;;;;;;;8.68;5.07;;;;;;;-5.54;75.19;95450.75;6322853;28;20124;-67
2023/03/05 03:10:00;;;;;;;11.30;6.82;;;;;;;-5.52;75.21;95449.00;6323052;28;20042;-67
2023/03/05 03:13:05;;;;;;;10.93;6.38;;;;;;;-5.44;75.91;95439.38;6322650;28;20048;-66
2023/03/05 03:16:12;;;;;;;13.85;7.40;;;;;;;-5.36;75.78;95444.31;6322496;28;20067;-66
2023/03/05 03:19:18;;;;;;;9.77;5.78;;;;;;;-5.15;74.97;95437.78;6321396;28;20040;-66
2023/03/05 03:22:22;;;;;;;12.57;6.40;;;;;;;-5.25;75.22;95438.91;6322468;28;20161;-66
2023/03/05 03:25:26;;;;;;;11.75;5.82;;;;;;;-5.11;75.55;95441.13;6322417;28;20044;-66
2023/03/05 03:28:31;;;;;;;17.75;9.90;;;;;;;-4.89;75.46;95443.94;6322173;28;20059;-67
2023/03/05 03:31:39;;;;;;;10.80;6.55;;;;;;;-4.70;75.63;95455.34;6322215;28;20043;-67
2023/03/05 03:34:44;;;;;;;13.75;7.75;;;;;;;-4.52;75.36;95449.72;6320774;28;20044;-66
2023/03/05 03:37:49;;;;;;;10.93;6.47;;;;;;;-4.37;74.65;95452.72;6321804;28;20425;-67
2023/03/05 03:40:54;;;;;;;11.77;6.45;;;;;;;-4.22;74.61;95454.81;6321887;28;20097;-67
2023/03/05 03:44:02;;;;;;;16.40;7.68;;;;;;;-4.08;74.36;95465.56;6323182;28;20056;-67
2023/03/05 03:47:07;;;;;;;6.85;4.63;;;;;;;-3.91;74.24;95459.88;6321773;28;20059;-67
2023/03/05 03:50:11;;;;;;;7.68;5.35;;;;;;;-3.87;73.40;95468.34;6320521;28;20039;-67
2023/03/05 03:53:16;;;;;;;14.80;6.55;;;;;;;-3.79;73.01;95481.81;6321223;28;20062;-67
2023/03/05 03:56:22;;;;;;;10.20;5.25;;;;;;;-3.75;72.33;95479.97;6321943;28;20048;-67
2023/03/05 03:59:26;;;;;;;9.52;5.20;;;;;;;-3.68;71.76;95478.88;6321214;28;20134;-67
2023/03/05 04:02:31;;;;;;;10.15;5.63;;;;;;;-3.54;70.90;95486.16;6321616;28;20122;-66
2023/03/05 04:05:35;;;;;;;7.00;4.10;;;;;;;-3.62;70.25;95484.69;6321448;28;20042;-67
2023/03/05 04:08:42;;;;;;;8.48;4.47;;;;;;;-3.52;69.72;95484.38;6321274;28;20116;-65
2023/03/05 04:11:47;;;;;;;9.18;5.30;;;;;;;-3.52;69.67;95486.97;6319487;28;20056;-68
2023/03/05 04:14:52;;;;;;;5.85;4.28;;;;;;;-3.32;68.76;95499.19;6321046;28;20048;-67
2023/03/05 04:17:56;;;;;;;8.48;5.18;;;;;;;-3.27;68.90;95510.16;6321183;28;20559;-67
2023/03/05 04:21:01;;;;;;;6.88;4.30;;;;;;;-3.02;68.44;95505.03;6320917;28;20437;-66
2023/03/05 04:24:07;;;;;;;8.00;5.05;;;;;;;-2.89;66.72;95508.88;6321072;28;20421;-67
2023/03/05 04:27:12;;;;;;;9.23;5.25;;;;;;;-2.97;66.45;95518.59;6321069;28;20047;-67
2023/03/05 04:30:16;;;;;;;7.90;4.25;;;;;;;-3.01;66.35;95511.88;6320586;28;20539;-67
2023/03/05 04:33:23;;;;;;;8.30;4.63;;;;;;;-2.99;66.05;95499.78;6320680;28;20063;-67
2023/03/05 04:36:28;;;;;;;8.57;5.30;;;;;;;-3.24;66.16;95510.88;6320630;28;20047;-66
2023/03/05 04:39:32;;;;;;;6.70;4.57;;;;;;;-3.49;66.79;95500.56;6320566;28;20539;-67
2023/03/05 04:42:37;;;;;;;7.60;3.80;;;;;;;-3.63;67.55;95518.97;6318570;28;20051;-68
2023/03/05 04:45:42;;;;;;;8.50;4.30;;;;;;;-3.62;67.77;95512.97;6320145;28;20059;-67
2023/03/05 04:48:46;;;;;;;9.18;4.57;;;;;;;-3.51;67.23;95511.78;6318749;28;20115;-66
2023/03/05 04:51:51;;;;;;;8.70;5.47;;;;;;;-3.65;67.51;95504.50;6319389;28;20118;-67
2023/03/05 04:54:56;;;;;;;10.38;5.68;;;;;;;-3.58;68.01;95507.72;6320370;28;20044;-68
2023/03/05 04:58:01;;;;;;;8.18;5.20;;;;;;;-3.51;68.13;95514.34;6320264;28;20277;-67
2023/03/05 05:01:06;;;;;;;7.72;4.65;;;;;;;-3.47;67.81;95508.22;6319872;28;20493;-67
2023/03/05 05:04:12;;;;;;;7.72;5.18;;;;;;;-3.43;67.76;95510.63;6319822;28;20046;-68
2023/03/05 05:07:15;;;;;;;;;;;;;;;-3.29;67.80;95502.47;6319117;28;20576;-68
2023/03/05 05:10:19;;;;;;;8.43;3.80;;;;;;;-3.27;66.96;95505.84;6319880;28;19998;-67
2023/03/05 05:13:24;;;;;;;6.80;3.90;;;;;;;-3.22;66.79;95511.69;6319724;28;20044;-67
2023/03/05 05:16:31;;;;;;;6.40;4.15;;;;;;;-2.92;65.45;95516.69;6319785;28;20051;-67
2023/03/05 05:19:35;;;;;;;8.48;4.20;;;;;;;-2.54;65.40;95532.59;6319632;28;20520;-66
2023/03/05 05:22:41;;;;;;;7.97;4.60;;;;;;;-1.37;64.14;95529.91;6318372;28;20059;-68
2023/03/05 05:25:54;;;;;;;4.57;3.10;;;;;;;-0.15;60.90;95538.59;6319409;28;20134;-67
2023/03/05 05:28:59;;;;;;;4.50;3.20;;;;;;;0.46;59.16;95544.53;6318312;28;20051;-66
2023/03/05 05:32:04;;;;;;;3.22;2.30;;;;;;;0.86;58.44;95539.13;6319850;28;20051;-67
2023/03/05 05:35:10;;;;;;;6.13;3.30;;;;;;;1.20;57.64;95555.63;6319678;28;20524;-68
2023/03/05 05:38:15;;;;;;;4.88;3.72;;;;;;;1.53;55.04;95547.09;6319385;28;20059;-68
2023/03/05 05:41:20;;;;;;;5.93;2.97;;;;;;;1.79;55.08;95556.16;6319435;28;20044;-68
2023/03/05 05:44:24;;;;;;;4.13;3.15;;;;;;;2.01;53.88;95550.69;6319159;28;20067;-68
2023/03/05 05:47:31;;;;;;;4.72;3.38;;;;;;;2.80;53.33;95539.50;6319210;28;20132;-67
2023/03/05 05:50:38;;;;;;;5.22;3.05;;;;;;;6.38;47.78;95546.78;6319341;28;20058;-68
2023/03/05 05:53:45;;;;;;;4.38;2.80;;;;;;;10.15;40.79;95545.84;6317702;28;20055;-67
2023/03/05 05:56:51;;;;;;;2.58;2.38;;;;;;;12.75;34.06;95550.72;6319181;28;20555;-68
2023/03/05 05:59:57;;;;;;;2.72;2.28;;;;;;;13.62;31.84;95534.41;6317845;28;20137;-67
2023/03/05 06:03:00;;;;;;;3.35;2.40;;;;;;;12.97;31.40;95544.25;6322138;28;20393;-67
2023/03/05 06:06:10;;;;;;;4.38;2.95;;;;;;;13.19;30.92;95548.28;6324019;28;20047;-68
2023/03/05 06:09:15;;;;;;;3.95;2.97;;;;;;;13.31;29.51;95552.41;6323737;28;20043;-68
2023/03/05 06:12:21;;;;;;;3.05;2.67;;;;;;;13.52;30.02;95546.03;6324048;28;20501;-68
2023/03/05 06:15:25;;;;;;;3.20;2.60;;;;;;;13.80;28.72;95552.91;6322891;28;20040;-68
2023/03/05 06:18:32;;;;;;;3.13;2.65;;;;;;;13.71;28.66;95548.53;6323803;28;20135;-66
2023/03/05 06:21:36;;;;;;;4.40;2.53;;;;;;;13.93;28.16;95548.06;6323794;28;20153;-68
2023/03/05 06:24:42;;;;;;;4.07;2.72;;;;;;;15.02;26.74;95544.13;6323705;28;20157;-68
2023/03/05 06:27:46;;;;;;;3.08;2.78;;;;;;;16.15;25.46;95537.41;6323873;28;20048;-68
2023/03/05 06:30:59;;;;;;;3.78;2.67;;;;;;;16.13;25.31;95534.09;6323564;28;20048;-68
2023/03/05 06:34:03;;;;;;;4.22;2.90;;;;;;;16.35;24.11;95515.81;6323075;28;20051;-67
2023/03/05 06:37:09;;;;;;;3.92;3.05;;;;;;;16.05;24.20;95523.50;6323222;28;20048;-69
2023/03/05 06:40:13;;;;;;;2.70;2.50;;;;;;;16.03;23.89;95537.91;6323280;28;20043;-68
2023/03/05 06:43:19;;;;;;;2.40;2.05;;;;;;;16.05;24.13;95536.75;6322002;28;20193;-67
2023/03/05 06:46:26;;;;;;;3.30;2.72;;;;;;;15.73;24.40;95548.16;6321899;28;20063;-68
2023/03/05 06:49:33;;;;;;;3.80;2.83;;;;;;;12.24;27.98;95554.63;6323188;28;20044;-68
2023/03/05 06:52:39;;;;;;;3.45;3.15;;;;;;;9.47;31.87;95554.03;6322961;28;20054;-68
2023/03/05 06:55:44;;;;;;;4.32;3.22;;;;;;;7.63;34.85;95552.59;6322901;28;20117;-68
2023/03/05 06:58:50;;;;;;;3.70;3.15;;;;;;;5.95;38.27;95560.16;6322978;28;20459;-68
2023/03/05 07:01:55;;;;;;;4.40;3.70;;;;;;;5.53;39.68;95559.44;6322801;28;20120;-68
2023/03/05 07:05:00;;;;;;;5.47;3.88;;;;;;;4.53;42.12;95558.00;6323065;28;20078;-68
2023/03/05 07:08:05;;;;;;;4.78;3.78;;;;;;;3.92;43.94;95564.31;6322776;28;20117;-67
2023/03/05 07:11:12;;;;;;;10.07;5.10;;;;;;;3.43;45.68;95568.00;6322698;28;20045;-68
2023/03/05 07:14:17;;;;;;;6.55;4.43;;;;;;;3.34;46.33;95558.13;6322041;28;20567;-68
2023/03/05 07:17:22;;;;;;;5.70;4.82;;;;;;;3.27;46.69;95565.44;6322444;28;20128;-68
2023/03/05 07:20:28;;;;;;;8.45;5.53;;;;;;;3.48;46.77;95558.19;6322411;28;20094;-68
2023/03/05 07:23:33;;;;;;;6.60;5.05;;;;;;;3.58;46.55;95558.47;6322661;28;20124;-69
2023/03/05 07:26:37;;;;;;;4.18;3.45;;;;;;;3.75;46.00;95566.13;6322168;28;20531;-69
2023/03/05 07:29:42;;;;;;;4.53;3.53;;;;;;;3.84;45.25;95569.94;6322229;28;20082;-68
2023/03/05 07:32:47;;;;;;;3.88;3.55;;;;;;;3.92;44.66;95561.69;6322044;28;20218;-67
2023/03/05 07:35:52;;;;;;;2.03;1.85;;;;;;;4.34;43.12;95568.69;6321999;28;20102;-67
2023/03/05 07:38:56;;;;;;;2.53;2.33;;;;;;;4.41;43.05;95564.75;6321737;28;20120;-68
2023/03/05 07:42:00;;;;;;;;;;;;;;;4.88;41.63;95560.16;6322273;28;20036;-68
2023/03/05 07:45:04;;;;;;;2.90;2.58;;;;;;;4.76;42.04;95553.13;6321670;28;20379;-68
2023/03/05 07:48:11;;;;;;;;;;;;;;;5.05;41.56;95554.69;6322175;28;20146;-72
2023/03/05 07:51:18;;;;;;;3.13;2.83;;;;;;;5.23;40.87;95551.84;6321610;28;20393;-69
2023/03/05 07:54:23;;;;;;;3.28;2.97;;;;;;;5.97;39.87;95559.13;6321532;28;20514;-68
2023/03/05 07:57:27;;;;;;;2.33;2.13;;;;;;;8.16;35.76;95560.84;6321317;28;20040;-69
2023/03/05 08:00:32;;;;;;;2.80;2.05;;;;;;;10.10;32.07;95554.91;6321336;28;20082;-69
2023/03/05 08:03:36;;;;;;;2.50;2.00;;;;;;;9.68;31.53;95551.44;6321272;28;20575;-68
2023/03/05 08:06:43;;;;;;;2.20;1.98;;;;;;;8.49;33.23;95552.22;6321219;28;20133;-69
2023/03/05 08:09:48;;;;;;;3.90;2.35;;;;;;;8.12;34.04;95548.91;6319867;28;20055;-69
2023/03/05 08:12:53;;;;;;;1.98;1.80;;;;;;;7.98;34.20;95551.75;6321043;28;20040;-69
2023/03/05 08:15:59;;;;;;;3.85;2.80;;;;;;;8.48;33.77;95566.25;6321007;28;20089;-68
2023/03/05 08:19:04;;;;;;;2.15;1.95;;;;;;;9.40;32.61;95553.72;6321002;28;20043;-68
2023/03/05 08:22:09;;;;;;;2.08;1.83;;;;;;;9.41;32.32;95551.94;6319311;28;20166;-68
2023/03/05 08:25:14;;;;;;;1.58;1.48;;;;;;;12.87;28.90;95557.47;6319297;28;20048;-69
2023/03/05 08:28:19;;;;;;;1.75;1.60;;;;;;;14.70;26.09;95550.94;6320622;28;20068;-68
2023/03/05 08:31:25;;;;;;;2.28;2.08;;;;;;;16.79;23.40;95561.41;6320441;28;20089;-69
2023/03/05 08:34:30;;;;;;;2.80;1.80;;;;;;;19.85;20.80;95563.09;6319993;28;20040;-68
2023/03/05 08:37:37;;;;;;;2.55;1.75;;;;;;;21.64;19.49;95568.97;6320363;28;20513;-68
2023/03/05 08:40:42;;;;;;;2.30;1.85;;;;;;;22.28;18.04;95568.53;6320108;28;20139;-68
2023/03/05 08:43:47;;;;;;;2.60;1.90;;;;;;;18.88;20.21;95563.25;6320120;28;20097;-68
2023/03/05 08:46:51;;;;;;;2.17;1.83;;;;;;;14.35;24.35;95552.69;6319975;28;20113;-68
2023/03/05 08:49:57;;;;;;;3.17;2.45;;;;;;;11.85;27.89;95558.13;6320196;28;20582;-68
2023/03/05 08:53:01;;;;;;;3.10;2.80;;;;;;;10.01;30.48;95542.56;6319886;28;20144;-68
2023/03/05 08:56:06;;;;;;;2.92;2.47;;;;;;;9.73;31.22;95533.50;6319031;28;20534;-68
2023/03/05 08:59:09;;;;;;;2.80;2.15;;;;;;;10.86;30.00;95527.50;6318362;28;20067;-68
2023/03/05 09:02:18;;;;;;;2.45;2.13;;;;;;;12.89;27.65;95537.03;6319404;28;20138;-68
2023/03/05 09:05:19;;;;;;;1.45;1.35;;;;;;;11.73;28.47;95537.31;6319256;28;20044;-69
2023/03/05 09:08:23;;;;;;;4.82;2.63;;;;;;;9.47;31.38;95543.53;6319508;28;20134;-68
2023/03/05 09:11:29;;;;;;;2.72;2.13;;;;;;;7.65;34.37;95524.53;6319046;28;20039;-67
2023/03/05 09:14:36;;;;;;;3.92;2.53;;;;;;;6.45;37.15;95537.56;6319489;28;20116;-68
2023/03/05 09:17:40;;;;;;;2.78;2.20;;;;;;;5.69;39.56;95523.56;6318929;28;20044;-67
2023/03/05 09:20:42;;;;;;;2.90;2.08;;;;;;;4.91;41.36;95524.28;6317790;28;20137;-70
2023/03/05 09:23:45;;;;;;;2.95;2.65;;;;;;;4.65;42.28;95522.50;6319227;28;20128;-68
2023/03/05 09:26:47;;;;;;;3.65;2.95;;;;;;;4.37;42.56;95532.03;6318885;28;20052;-68
2023/03/05 09:29:52;;;;;;;3.53;2.85;;;;;;;4.22;43.45;95533.00;6319201;28;20114;-68
2023/03/05 09:32:55;;;;;;;3.53;3.15;;;;;;;4.01;44.26;95528.13;6319350;28;20044;-67
2023/03/05 09:35:59;;;;;;;4.80;3.10;;;;;;;3.91;44.99;95534.84;6317457;28;20425;-68
2023/03/05 09:39:01;;;;;;;3.35;2.55;;;;;;;3.70;45.53;95536.09;6319207;28;20141;-68
2023/03/05 09:42:10;;;;;;;5.03;2.90;;;;;;;3.43;46.67;95523.81;6319099;28;20036;-67
2023/03/05 09:45:26;;;;;;;3.20;2.50;;;;;;;3.26;46.90;95521.34;6318327;28;20532;-69
2023/03/05 09:48:50;;;;;;;4.03;2.95;;;;;;;3.50;47.25;95530.31;6318956;28;20048;-68
2023/03/05 09:52:00;;;;;;;5.45;4.43;;;;;;;3.31;47.82;95524.50;6318699;28;20488;-68
2023/03/05 09:55:03;;;;;;;4.35;3.63;;;;;;;3.55;47.37;95527.44;6318744;28;20189;-68
2023/03/05 09:58:31;;;;;;;3.33;2.72;;;;;;;3.91;46.50;95524.44;6318992;28;20513;-69
2023/03/05 10:01:40;;;;;;;3.60;3.03;;;;;;;3.60;46.79;95510.66;6318781;28;20057;-68
2023/03/05 10:05:09;;;;;;;4.05;2.50;;;;;;;3.41;47.42;95530.84;6318795;28;20040;-67
2023/03/05 10:08:12;;;;;;;5.43;3.55;;;;;;;3.10;48.12;95522.22;6318635;28;20425;-68
2023/03/05 10:11:37;;;;;;;2.90;2.50;;;;;;;2.83;48.71;95513.38;6318964;28;20564;-67
2023/03/05 10:14:44;;;;;;;4.95;3.55;;;;;;;2.50;49.73;95524.72;6319057;28;20498;-67
2023/03/05 10:18:13;;;;;;;4.38;3.67;;;;;;;2.36;50.59;95529.81;6318531;28;20121;-68
2023/03/05 10:21:29;;;;;;;6.15;4.20;;;;;;;2.22;51.47;95528.78;6318439;28;20040;-67
2023/03/05 10:24:38;;;;;;;4.53;4.07;;;;;;;2.03;51.99;95534.09;6318974;28;20036;-67
2023/03/05 10:27:50;;;;;;;4.90;3.40;;;;;;;1.98;52.34;95523.16;6318534;28;20460;-69
2023/03/05 10:31:12;;;;;;;6.70;3.47;;;;;;;1.88;52.71;95529.72;6318470;28;20098;-68
2023/03/05 10:34:35;;;;;;;7.22;4.65;;;;;;;1.89;52.79;95530.56;6318226;28;20047;-68
2023/03/05 10:38:03;;;;;;;5.53;4.78;;;;;;;1.98;52.69;95524.88;6318249;28;20070;-67
2023/03/05 10:41:15;;;;;;;5.55;3.85;;;;;;;2.13;52.10;95521.50;6318187;28;20511;-68
2023/03/05 10:44:36;;;;;;;8.18;4.82;;;;;;;2.05;52.24;95521.06;6318425;28;20070;-67
2023/03/05 10:48:15;;;;;;;9.57;5.63;;;;;;;2.25;52.60;95528.63;6318700;28;20095;-67
2023/03/05 10:51:28;;;;;;;6.05;4.40;;;;;;;2.63;51.55;95523.13;6309227;28;20052;-68
2023/03/05 10:54:34;;;;;;;6.72;4.65;;;;;;;2.85;51.04;95512.34;6322386;28;20144;-69
2023/03/05 10:57:38;;;;;;;7.38;4.68;;;;;;;3.87;49.33;95517.72;6322618;28;20055;-69
2023/03/05 11:05:39;;;;;;;7.45;4.10;;;;;;;4.26;47.74;95513.63;6285635;28;19932;-68
2023/03/05 11:08:46;;;;;;;6.40;4.57;;;;;;;4.18;47.95;95515.88;6314056;28;20531;-68
2023/03/05 11:12:14;;;;;;;5.68;4.45;;;;;;;4.69;46.73;95500.53;6322215;28;20123;-68
2023/03/05 11:15:15;;;;;;;6.70;5.05;;;;;;;5.07;46.27;95512.91;6322288;28;20055;-69
2023/03/05 11:18:23;;;;;;;;;;;;;;;5.73;44.61;95501.53;6322269;28;20060;-68
2023/03/05 11:21:26;;;;;;;4.88;3.42;;;;;;;6.58;42.56;95493.94;6321932;28;20319;-69
2023/03/05 11:24:30;;;;;;;6.85;4.93;;;;;;;6.84;41.81;95494.69;6320061;28;20092;-68
2023/03/05 11:27:42;;;;;;;7.45;4.97;;;;;;;6.80;41.80;95510.72;6321771;28;20047;-69
2023/03/05 11:30:59;;;;;;;7.18;5.43;;;;;;;6.97;41.52;95492.88;6321641;28;20051;-68
2023/03/05 11:34:07;;;;;;;6.78;5.03;;;;;;;8.17;39.43;95498.78;6321367;28;20055;-69
2023/03/05 11:37:21;;;;;;;5.95;4.38;;;;;;;8.92;37.41;95483.25;6321769;28;20346;-69
2023/03/05 11:40:24;;;;;;;7.00;4.90;;;;;;;9.15;36.68;95476.13;6321690;28;20433;-68
2023/03/05 11:43:25;;;;;;;5.20;4.10;;;;;;;8.42;37.46;95469.75;6320963;28;20460;-68
2023/03/05 11:47:08;;;;;;;5.15;4.38;;;;;;;7.11;39.92;95484.03;6322045;28;20130;-67
2023/03/05 11:50:20;;;;;;;7.88;4.82;;;;;;;5.20;44.38;95499.88;6276238;28;20082;-69
2023/03/05 11:53:31;;;;;;;5.90;4.53;;;;;;;4.07;47.56;95466.22;6321273;28;20048;-68
2023/03/05 11:56:41;;;;;;;11.23;6.40;;;;;;;3.64;49.15;95458.44;6321078;28;20133;-68
2023/03/05 11:59:46;;;;;;;7.85;5.60;;;;;;;3.39;50.21;95444.28;6318559;28;20429;-67
2023/03/05 12:02:54;;;;;;;9.23;6.07;;;;;;;3.62;50.43;95449.88;6321138;28;20036;-68
2023/03/05 12:06:13;;;;;;;6.93;5.72;;;;;;;4.67;48.42;95429.44;6321134;28;20113;-68
2023/03/05 12:09:54;;;;;;;4.55;3.47;;;;;;;5.59;46.45;95439.00;6316959;28;20036;-69
2023/03/05 12:13:17;;;;;;;12.43;5.50;;;;;;;4.57;48.40;95438.78;6223020;28;20186;-67
2023/03/05 12:16:32;;;;;;;6.15;3.28;;;;;;;3.81;50.45;95455.66;6319722;28;20101;-68
2023/03/05 12:19:53;;;;;;;10.70;6.45;;;;;;;3.35;52.24;95458.41;6319385;28;20044;-68
2023/03/05 12:22:58;;;;;;;5.05;3.92;;;;;;;3.36;51.98;95428.88;6320607;28;20134;-68
2023/03/05 12:26:03;;;;;;;9.82;5.65;;;;;;;3.00;53.18;95442.25;6320546;28;20116;-68
2023/03/05 12:29:46;;;;;;;11.25;6.45;;;;;;;2.85;54.23;95433.59;6320374;28;20505;-67
2023/03/05 12:32:53;;;;;;;6.10;4.45;;;;;;;2.24;55.36;95422.31;6307918;28;20117;-68
2023/03/05 12:36:18;;;;;;;9.00;5.90;;;;;;;1.83;56.82;95427.16;6319042;28;20582;-68
2023/03/05 12:39:43;;;;;;;8.10;5.97;;;;;;;1.58;57.89;95428.44;6319987;28;20128;-66
2023/03/05 12:43:00;;;;;;;9.63;5.40;;;;;;;1.47;58.45;95438.53;6319139;28;20082;-68
2023/03/05 12:46:25;;;;;;;12.90;7.38;;;;;;;1.07;59.70;95432.78;6320323;28;20169;-69
2023/03/05 12:49:28;;;;;;;6.93;4.60;;;;;;;1.27;60.18;95434.38;6320344;28;20051;-67
2023/03/05 12:52:34;;;;;;;11.20;6.60;;;;;;;1.17;59.78;95418.47;6319915;28;20090;-67
2023/03/05 12:55:59;;;;;;;9.80;6.28;;;;;;;0.86;60.95;95398.47;6319750;28;20048;-68
2023/03/05 12:59:09;;;;;;;8.50;6.55;;;;;;;0.57;62.20;95393.00;6320046;28;20135;-67
2023/03/05 13:02:27;;;;;;;7.97;5.20;;;;;;;0.48;62.25;95382.22;6319854;28;20043;-67
2023/03/05 13:05:35;;;;;;;11.80;7.72;;;;;;;0.36;63.08;95374.16;6319451;28;20044;-68
2023/03/05 13:08:36;;;;;;;10.43;7.10;;;;;;;0.33;63.31;95383.81;6318891;28;20048;-68
2023/03/05 13:11:38;;;;;;;10.43;7.18;;;;;;;0.19;62.89;95372.38;6318955;28;20054;-67
2023/03/05 13:14:47;;;;;;;13.13;7.75;;;;;;;0.05;63.71;95376.53;6319453;28;20039;-68
2023/03/05 13:17:56;;;;;;;11.82;7.53;;;;;;;-0.15;64.08;95377.47;6319491;28;20067;-68
2023/03/05 13:21:06;;;;;;;12.73;7.57;;;;;;;-0.30;65.08;95385.03;6319535;28;20036;-70
2023/03/05 13:24:18;;;;;;;12.32;7.78;;;;;;;-0.58;65.78;95369.94;6319127;28;20566;-68
2023/03/05 13:27:28;;;;;;;9.93;6.47;;;;;;;-0.54;66.28;95356.00;6319284;28;20158;-67
2023/03/05 13:30:34;;;;;;;14.57;8.60;;;;;;;-0.75;67.08;95367.28;6319221;28;20081;-68
2023/03/05 13:33:38;;;;;;;14.80;9.15;;;;;;;-0.89;67.87;95343.81;6319250;28;20040;-68
2023/03/05 13:36:44;;;;;;;15.52;8.93;;;;;;;-1.18;68.57;95338.19;6319357;28;20047;-68
2023/03/05 13:39:52;;;;;;;12.13;7.10;;;;;;;-1.22;69.46;95342.66;6319060;28;20927;-67
2023/03/05 13:42:55;;;;;;;12.82;8.23;;;;;;;-1.19;69.52;95316.72;6319334;28;20040;-67
2023/03/05 13:46:00;;;;;;;12.23;7.05;;;;;;;-1.24;69.27;95335.88;6318657;28;20079;-68
2023/03/05 13:49:34;;;;;;;14.30;8.05;;;;;;;-1.41;70.54;95339.19;6319185;28;20126;-68
2023/03/05 13:52:37;;;;;;;13.98;8.60;;;;;;;-1.58;70.48;95345.88;6274356;28;20524;-68
2023/03/05 13:55:41;;;;;;;16.58;8.30;;;;;;;-1.59;71.24;95322.72;6319002;28;20048;-67
2023/03/05 13:58:56;;;;;;;12.73;6.88;;;;;;;-1.59;71.09;95322.72;6318904;28;20047;-68
2023/03/05 14:02:04;;;;;;;15.98;9.82;;;;;;;-1.56;71.85;95342.41;6317842;28;20063;-67
2023/03/05 14:05:14;;;;;;;18.35;10.20;;;;;;;-1.60;71.29;95346.84;6318373;28;20052;-68
2023/03/05 14:08:29;;;;;;;13.18;7.07;;;;;;;-1.51;71.62;95340.47;6318881;28;20109;-69
2023/03/05 14:11:33;;;;;;;11.98;6.50;;;;;;;-1.65;71.37;95328.16;6318498;28;20036;-68
2023/03/05 14:14:37;;;;;;;;;;;;;;;-1.59;71.33;95322.72;6318615;28;20055;-68
2023/03/05 14:17:44;;;;;;;12.55;7.85;;;;;;;-1.67;72.15;95332.53;6318974;28;19923;-67
2023/03/05 14:21:09;;;;;;;15.55;8.00;;;;;;;-1.61;71.94;95316.81;6318801;28;20071;-68
2023/03/05 14:24:27;;;;;;;11.95;6.82;;;;;;;-1.73;72.50;95325.03;6321406;28;20040;-68
2023/03/05 14:27:35;;;;;;;9.50;5.82;;;;;;;-1.64;72.55;95324.69;6323092;28;20535;-67
2023/03/05 14:30:44;;;;;;;13.02;8.57;;;;;;;-1.71;72.44;95330.97;6323510;28;20564;-68
2023/03/05 14:33:51;;;;;;;12.88;8.52;;;;;;;-1.68;72.54;95330.84;6323538;28;20177;-68
2023/03/05 14:37:01;;;;;;;14.13;8.55;;;;;;;-1.72;72.75;95329.31;6323450;28;20101;-68
2023/03/05 14:40:06;;;;;;;14.15;8.02;;;;;;;-1.65;73.05;95328.16;6323561;28;20505;-67
2023/03/05 14:43:11;;;;;;;11.90;6.55;;;;;;;-1.53;73.08;95326.78;6323140;28;20032;-68
2023/03/05 14:46:16;;;;;;;14.38;9.73;;;;;;;-1.64;73.05;95309.22;6322194;28;20039;-68
2023/03/05 14:49:19;;;;;;;17.60;10.13;;;;;;;-1.60;73.56;95300.44;6321427;28;20143;-69
2023/03/05 14:52:23;;;;;;;;;;;;;;;-1.62;73.54;95294.50;6323260;28;20052;-68